| time (UTC) | temp F | wind direction | speed knots | gust knots | rain 1hr in | rain 24hr in | rain mn in | humidity % | barometer mb |
| 20260506223032 | 61 | 274 | 0.0 | 10.4 | 0.00 | 0.00 | 0.00 | 75 | 1019.9 |
| 20260506221530 | 61 | 229 | 1.7 | 7.8 | 0.00 | 0.00 | 0.00 | 70 | 1020.0 |
| 20260506220030 | 61 | 200 | 1.7 | 7.0 | 0.00 | 0.00 | 0.00 | 71 | 1020.0 |
| 20260506214532 | 61 | 234 | 2.6 | 7.0 | 0.00 | 0.00 | 0.00 | 73 | 1020.0 |
| 20260506213032 | 61 | 179 | 2.6 | 4.3 | 0.00 | 0.00 | 0.00 | 72 | 1020.0 |
| 20260506211532 | 60 | 257 | 3.5 | 6.1 | 0.00 | 0.00 | 0.00 | 69 | 1020.1 |
| 20260506210033 | 61 | 254 | 2.6 | 6.1 | 0.00 | 0.00 | 0.00 | 70 | 1020.1 |
| 20260506204530 | 61 | 251 | 3.5 | 6.1 | 0.00 | 0.00 | 0.00 | 69 | 1020.1 |
| 20260506203038 | 61 | 247 | 2.6 | 4.3 | 0.00 | 0.00 | 0.00 | 69 | 1020.1 |
| 20260506201537 | 61 | 183 | 0.9 | 3.5 | 0.00 | 0.00 | 0.00 | 66 | 1020.1 |
| 20260506200039 | 61 | 173 | 2.6 | 5.2 | 0.00 | 0.00 | 0.00 | 69 | 1020.0 |
| 20260506194531 | 62 | 184 | 0.9 | 5.2 | 0.00 | 0.00 | 0.00 | 67 | 1019.8 |
| 20260506193030 | 63 | 185 | 0.0 | 2.6 | 0.00 | 0.00 | 0.00 | 62 | 1019.9 |
| 20260506191530 | 63 | 199 | 0.9 | 5.2 | 0.00 | 0.00 | 0.00 | 63 | 1019.9 |
| 20260506190037 | 62 | 134 | 0.9 | 5.2 | 0.00 | 0.00 | 0.00 | 65 | 1019.9 |
| 20260506184540 | 63 | 148 | 0.9 | 3.5 | 0.00 | 0.00 | 0.00 | 62 | 1019.9 |
| 20260506183030 | 64 | 117 | 0.9 | 4.3 | 0.00 | 0.00 | 0.00 | 59 | 1019.9 |
| 20260506181530 | 63 | 114 | 0.9 | 3.5 | 0.00 | 0.00 | 0.00 | 61 | 1019.8 |
| 20260506180031 | 63 | 227 | 0.0 | 3.5 | 0.00 | 0.00 | 0.00 | 61 | 1019.7 |
| 20260506174530 | 63 | 182 | 0.9 | 3.5 | 0.00 | 0.00 | 0.00 | 60 | 1019.5 |
| 20260506173035 | 62 | 134 | 1.7 | 5.2 | 0.00 | 0.00 | 0.00 | 63 | 1019.6 |
| 20260506171533 | 62 | 40 | 0.9 | 5.2 | 0.00 | 0.00 | 0.00 | 62 | 1019.6 |
| 20260506170032 | 61 | 0 | 0.9 | 3.5 | 0.00 | 0.00 | 0.00 | 65 | 1019.6 |
| 20260506164530 | 61 | 149 | 0.9 | 6.1 | 0.00 | 0.00 | 0.00 | 65 | 1019.6 |
| 20260506163037 | 59 | 0 | 0.9 | 4.3 | 0.00 | 0.00 | 0.00 | 69 | 1019.6 |
| 20260506161532 | 57 | 234 | 2.6 | 4.3 | 0.00 | 0.00 | 0.00 | 77 | 1019.7 |
| 20260506160032 | 57 | 238 | 2.6 | 3.5 | 0.00 | 0.00 | 0.00 | 76 | 1019.6 |
| 20260506154532 | 58 | 238 | 2.6 | 4.3 | 0.00 | 0.00 | 0.00 | 75 | 1019.5 |
| 20260506153032 | 58 | 253 | 4.3 | 7.0 | 0.00 | 0.00 | 0.00 | 72 | 1019.5 |
| 20260506151532 | 60 | 0 | 0.0 | 1.7 | 0.00 | 0.00 | 0.00 | 69 | 1019.1 |
| 20260506150030 | 59 | 261 | 0.9 | 3.5 | 0.00 | 0.00 | 0.00 | 70 | 1019.1 |
| 20260506144535 | 58 | 311 | 0.0 | 2.6 | 0.00 | 0.00 | 0.00 | 70 | 1019.1 |
| 20260506143037 | 58 | 293 | 0.0 | 2.6 | 0.00 | 0.00 | 0.00 | 72 | 1018.8 |
| 20260506141533 | 57 | 268 | 0.0 | 2.6 | 0.00 | 0.00 | 0.00 | 75 | 1018.8 |
| 20260506140033 | 55 | 0 | 0.0 | 2.6 | 0.00 | 0.00 | 0.00 | 79 | 1018.6 |
| 20260506134532 | 53 | 5 | 0.0 | 1.7 | 0.00 | 0.00 | 0.00 | 82 | 1018.5 |
| 20260506133030 | 52 | 0 | 0.0 | 1.7 | 0.00 | 0.00 | 0.00 | 84 | 1018.4 |
| 20260506131532 | 52 | 311 | 0.0 | 1.7 | 0.00 | 0.00 | 0.00 | 83 | 1018.3 |
| 20260506130035 | 52 | 0 | 0.0 | 1.7 | 0.00 | 0.00 | 0.00 | 83 | 1018.1 |
| 20260506124535 | 52 | 0 | 0.0 | 1.7 | 0.00 | 0.00 | 0.00 | 83 | 1018.0 |
| 20260506124016 | 52 | 0 | 0.0 | 1.7 | 0.00 | 0.00 | 0.00 | 83 | 1018.0 |
| 20260506123516 | 52 | 0 | 0.0 | 1.7 | 0.00 | 0.00 | 0.00 | 83 | 1018.0 |
| 20260506123037 | 52 | 29 | 0.0 | 1.7 | 0.00 | 0.00 | 0.00 | 83 | 1017.9 |
| 20260506122516 | 52 | 0 | 0.0 | 2.6 | 0.00 | 0.00 | 0.00 | 84 | 1017.9 |
| 20260506122016 | 52 | 0 | 0.0 | 2.6 | 0.00 | 0.00 | 0.00 | 84 | 1017.8 |
| 20260506121534 | 52 | 30 | 0.9 | 2.6 | 0.00 | 0.00 | 0.00 | 84 | 1017.8 |
| 20260506121016 | 52 | 0 | 0.0 | 2.6 | 0.00 | 0.00 | 0.00 | 84 | 1017.7 |
| 20260506120517 | 52 | 29 | 0.0 | 2.6 | 0.00 | 0.00 | 0.00 | 85 | 1017.8 |
| 20260506120034 | 52 | 30 | 0.9 | 2.6 | 0.00 | 0.00 | 0.00 | 85 | 1017.9 |
| 20260506115519 | 52 | 27 | 0.9 | 2.6 | 0.00 | 0.00 | 0.00 | 85 | 1017.9 |
| 20260506115017 | 52 | 27 | 0.0 | 1.7 | 0.00 | 0.00 | 0.00 | 85 | 1017.8 |
| 20260506114538 | 52 | 0 | 0.0 | 2.6 | 0.00 | 0.00 | 0.00 | 86 | 1017.8 |
| 20260506114016 | 52 | 0 | 0.0 | 2.6 | 0.00 | 0.00 | 0.00 | 86 | 1017.7 |
| 20260506113516 | 52 | 0 | 0.0 | 1.7 | 0.00 | 0.00 | 0.00 | 87 | 1017.7 |
| 20260506113040 | 53 | 0 | 0.0 | 1.7 | 0.00 | 0.00 | 0.00 | 87 | 1017.7 |
| 20260506112516 | 53 | 0 | 0.0 | 1.7 | 0.00 | 0.00 | 0.00 | 87 | 1017.6 |
| 20260506112016 | 53 | 28 | 0.0 | 2.6 | 0.00 | 0.00 | 0.00 | 87 | 1017.6 |
| 20260506111532 | 53 | 0 | 0.0 | 2.6 | 0.00 | 0.00 | 0.00 | 88 | 1017.5 |
| 20260506111017 | 53 | 28 | 0.0 | 2.6 | 0.00 | 0.00 | 0.00 | 88 | 1017.5 |
| 20260506110517 | 53 | 28 | 0.9 | 2.6 | 0.00 | 0.00 | 0.00 | 88 | 1017.4 |
| 20260506110035 | 53 | 28 | 0.9 | 2.6 | 0.00 | 0.00 | 0.00 | 88 | 1017.4 |
| 20260506105516 | 53 | 0 | 0.9 | 2.6 | 0.00 | 0.00 | 0.00 | 88 | 1017.3 |
| 20260506105019 | 53 | 28 | 0.9 | 2.6 | 0.00 | 0.00 | 0.00 | 88 | 1017.1 |
| 20260506104538 | 54 | 29 | 0.9 | 2.6 | 0.00 | 0.00 | 0.00 | 88 | 1017.1 |
| 20260506104017 | 54 | 30 | 0.9 | 2.6 | 0.00 | 0.00 | 0.00 | 88 | 1017.1 |
| 20260506103517 | 54 | 30 | 1.7 | 2.6 | 0.00 | 0.00 | 0.00 | 88 | 1017.2 |
| 20260506103048 | 54 | 30 | 1.7 | 2.6 | 0.00 | 0.00 | 0.00 | 88 | 1017.0 |
| 20260506102516 | 54 | 32 | 0.9 | 2.6 | 0.00 | 0.00 | 0.00 | 87 | 1017.1 |
| 20260506102016 | 55 | 32 | 0.9 | 2.6 | 0.00 | 0.00 | 0.00 | 87 | 1017.1 |
| 20260506101548 | 55 | 32 | 0.9 | 1.7 | 0.00 | 0.00 | 0.00 | 87 | 1017.1 |
| 20260506101016 | 55 | 32 | 0.0 | 0.9 | 0.00 | 0.00 | 0.00 | 87 | 1017.1 |
| 20260506100516 | 55 | 0 | 0.0 | 1.7 | 0.00 | 0.00 | 0.00 | 87 | 1017.0 |
| 20260506100056 | 55 | 0 | 0.0 | 1.7 | 0.00 | 0.00 | 0.00 | 87 | 1017.1 |
| 20260506095517 | 55 | 32 | 0.0 | 1.7 | 0.00 | 0.00 | 0.00 | 88 | 1016.9 |
| 20260506095022 | 55 | 0 | 0.0 | 0.9 | 0.00 | 0.00 | 0.00 | 88 | 1017.0 |
| 20260506094606 | 55 | 0 | 0.0 | 0.9 | 0.00 | 0.00 | 0.00 | 87 | 1016.9 |
| 20260506094019 | 55 | 0 | 0.0 | 0.0 | 0.00 | 0.00 | 0.00 | 87 | 1016.7 |
| 20260506093514 | 55 | 0 | 0.0 | 0.0 | 0.00 | 0.00 | 0.00 | 86 | 1016.7 |
| 20260506093039 | 55 | 0 | 0.0 | 0.0 | 0.00 | 0.00 | 0.00 | 86 | 1016.6 |
| 20260506092515 | 55 | 0 | 0.0 | 0.9 | 0.00 | 0.00 | 0.00 | 85 | 1016.7 |
| 20260506092016 | 55 | 0 | 0.0 | 2.6 | 0.00 | 0.00 | 0.00 | 85 | 1016.7 |
| 20260506091534 | 55 | 0 | 0.0 | 2.6 | 0.00 | 0.00 | 0.00 | 84 | 1016.6 |
| 20260506091016 | 56 | 33 | 0.0 | 1.7 | 0.00 | 0.00 | 0.00 | 84 | 1016.6 |
| 20260506090515 | 56 | 0 | 0.0 | 3.5 | 0.00 | 0.00 | 0.00 | 84 | 1016.6 |
| 20260506090031 | 56 | 0 | 0.0 | 3.5 | 0.00 | 0.00 | 0.00 | 84 | 1016.5 |
| 20260506085516 | 56 | 0 | 0.0 | 0.9 | 0.00 | 0.00 | 0.00 | 84 | 1016.5 |
| 20260506085016 | 56 | 0 | 0.0 | 0.9 | 0.00 | 0.00 | 0.00 | 84 | 1016.4 |
| 20260506084536 | 56 | 0 | 0.0 | 2.6 | 0.00 | 0.00 | 0.00 | 85 | 1016.3 |
| 20260506084015 | 56 | 33 | 0.0 | 2.6 | 0.00 | 0.00 | 0.00 | 85 | 1016.2 |
| 20260506083515 | 56 | 33 | 0.9 | 2.6 | 0.00 | 0.00 | 0.00 | 85 | 1016.2 |
| 20260506083034 | 56 | 34 | 0.0 | 2.6 | 0.00 | 0.00 | 0.00 | 85 | 1016.1 |
| 20260506082514 | 56 | 170 | 0.0 | 2.6 | 0.00 | 0.00 | 0.00 | 85 | 1016.2 |
| 20260506082014 | 56 | 185 | 0.9 | 1.7 | 0.00 | 0.00 | 0.00 | 86 | 1016.2 |
| 20260506081538 | 56 | 185 | 0.9 | 1.7 | 0.00 | 0.00 | 0.00 | 85 | 1016.2 |
| 20260506081015 | 56 | 185 | 0.0 | 1.7 | 0.00 | 0.00 | 0.00 | 85 | 1016.2 |
| 20260506080516 | 56 | 0 | 0.0 | 2.6 | 0.00 | 0.00 | 0.00 | 84 | 1016.1 |
| 20260506073515 | 57 | 0 | 0.0 | 1.7 | 0.00 | 0.00 | 0.00 | 83 | 1015.9 |
| 20260506073043 | 57 | 0 | 0.0 | 0.0 | 0.00 | 0.00 | 0.00 | 83 | 1015.9 |
| 20260506072515 | 57 | 0 | 0.0 | 1.7 | 0.00 | 0.00 | 0.00 | 83 | 1015.8 |
| 20260506072014 | 57 | 0 | 0.0 | 1.7 | 0.00 | 0.00 | 0.00 | 83 | 1015.8 |
| 20260506071531 | 57 | 195 | 0.0 | 0.9 | 0.00 | 0.00 | 0.00 | 83 | 1015.7 |
| 20260506071018 | 57 | 0 | 0.0 | 0.0 | 0.00 | 0.00 | 0.00 | 82 | 1015.6 |
| 20260506070515 | 57 | 0 | 0.0 | 0.9 | 0.00 | 0.00 | 0.00 | 82 | 1015.6 |
| 20260506062516 | 58 | 0 | 0.0 | 1.7 | 0.00 | 0.00 | 0.00 | 80 | 1015.1 |
| 20260506062017 | 58 | 195 | 0.0 | 1.7 | 0.00 | 0.00 | 0.00 | 80 | 1015.1 |
| 20260506061534 | 58 | 0 | 0.0 | 1.7 | 0.00 | 0.00 | 0.00 | 80 | 1015.0 |
| 20260506061018 | 58 | 0 | 0.0 | 0.0 | 0.00 | 0.00 | 0.00 | 79 | 1015.2 |
| 20260506060518 | 58 | 0 | 0.0 | 0.9 | 0.00 | 0.00 | 0.00 | 79 | 1015.1 |
| 20260506051018 | 59 | 0 | 0.0 | 0.9 | 0.00 | 0.00 | 0.00 | 78 | 1014.6 |
| 20260506050517 | 60 | 0 | 0.0 | 0.9 | 0.00 | 0.00 | 0.00 | 77 | 1014.7 |
| 20260506045017 | 60 | 0 | 0.0 | 0.9 | 0.00 | 0.00 | 0.00 | 76 | 1014.5 |
| 20260506044615 | 60 | 0 | 0.0 | 0.9 | 0.00 | 0.00 | 0.00 | 76 | 1014.5 |
| 20260506044017 | 60 | 0 | 0.0 | 0.9 | 0.00 | 0.00 | 0.00 | 76 | 1014.2 |
| 20260506043517 | 60 | 0 | 0.0 | 0.0 | 0.00 | 0.00 | 0.00 | 76 | 1014.2 |
| 20260506043032 | 61 | 0 | 0.0 | 0.0 | 0.00 | 0.00 | 0.00 | 76 | 1014.3 |
| 20260506042517 | 61 | 0 | 0.0 | 0.9 | 0.00 | 0.00 | 0.00 | 75 | 1014.2 |
| 20260506042021 | 61 | 0 | 0.0 | 0.9 | 0.00 | 0.00 | 0.00 | 75 | 1014.2 |
| 20260506041536 | 61 | 0 | 0.0 | 0.9 | 0.00 | 0.00 | 0.00 | 75 | 1014.1 |
| 20260506041021 | 61 | 0 | 0.0 | 0.0 | 0.00 | 0.00 | 0.00 | 75 | 1014.1 |
| 20260506040517 | 61 | 0 | 0.0 | 0.0 | 0.00 | 0.00 | 0.00 | 75 | 1014.0 |
| 20260506040036 | 61 | 0 | 0.0 | 0.0 | 0.00 | 0.00 | 0.00 | 75 | 1014.0 |
| 20260506035517 | 61 | 0 | 0.0 | 0.9 | 0.00 | 0.00 | 0.00 | 75 | 1014.0 |
| 20260506035017 | 62 | 0 | 0.0 | 0.9 | 0.00 | 0.00 | 0.00 | 74 | 1013.9 |
| 20260506034600 | 62 | 0 | 0.0 | 0.0 | 0.00 | 0.00 | 0.00 | 74 | 1013.9 |
| 20260506034016 | 62 | 0 | 0.0 | 0.0 | 0.00 | 0.00 | 0.00 | 73 | 1013.8 |
| 20260506033516 | 63 | 0 | 0.0 | 0.0 | 0.00 | 0.00 | 0.00 | 73 | 1013.8 |
| 20260506033036 | 63 | 0 | 0.0 | 0.0 | 0.00 | 0.00 | 0.00 | 72 | 1013.8 |
| 20260506032517 | 63 | 0 | 0.0 | 0.0 | 0.00 | 0.00 | 0.00 | 71 | 1013.7 |
| 20260506032019 | 63 | 0 | 0.0 | 0.0 | 0.00 | 0.00 | 0.00 | 71 | 1013.6 |
| 20260506031534 | 63 | 0 | 0.0 | 0.0 | 0.00 | 0.00 | 0.00 | 71 | 1013.6 |
| 20260506031015 | 63 | 0 | 0.0 | 0.0 | 0.00 | 0.00 | 0.00 | 71 | 1013.7 |
| 20260506030515 | 64 | 0 | 0.0 | 0.0 | 0.00 | 0.00 | 0.00 | 70 | 1013.6 |
| 20260506030033 | 64 | 0 | 0.0 | 0.9 | 0.00 | 0.00 | 0.00 | 70 | 1013.5 |
| 20260506025516 | 64 | 0 | 0.0 | 0.9 | 0.00 | 0.00 | 0.00 | 70 | 1013.6 |
| 20260506025015 | 64 | 0 | 0.0 | 0.0 | 0.00 | 0.00 | 0.00 | 69 | 1013.6 |
| 20260506024532 | 64 | 0 | 0.0 | 0.0 | 0.00 | 0.00 | 0.00 | 69 | 1013.5 |
| 20260506024015 | 64 | 0 | 0.0 | 0.9 | 0.00 | 0.00 | 0.00 | 68 | 1013.4 |
| 20260506023516 | 65 | 0 | 0.0 | 0.9 | 0.00 | 0.00 | 0.00 | 68 | 1013.5 |
| 20260506023029 | 65 | 0 | 0.0 | 0.9 | 0.00 | 0.00 | 0.00 | 68 | 1013.5 |
| 20260506022514 | 65 | 0 | 0.0 | 0.0 | 0.00 | 0.00 | 0.00 | 67 | 1013.5 |
| 20260506022012 | 65 | 0 | 0.0 | 0.9 | 0.00 | 0.00 | 0.00 | 68 | 1013.5 |
| 20260506021533 | 65 | 0 | 0.0 | 0.9 | 0.00 | 0.00 | 0.00 | 67 | 1013.5 |
| 20260506021015 | 65 | 0 | 0.0 | 0.9 | 0.00 | 0.00 | 0.00 | 67 | 1013.5 |
| 20260506020514 | 65 | 0 | 0.0 | 1.7 | 0.00 | 0.00 | 0.00 | 67 | 1013.4 |
| 20260506020032 | 65 | 0 | 0.0 | 1.7 | 0.00 | 0.00 | 0.00 | 67 | 1013.4 |
| 20260506015519 | 65 | 0 | 0.0 | 0.9 | 0.00 | 0.00 | 0.00 | 66 | 1013.3 |
| 20260506015016 | 65 | 0 | 0.0 | 0.9 | 0.00 | 0.00 | 0.00 | 66 | 1013.4 |
| 20260506014531 | 65 | 0 | 0.0 | 0.9 | 0.00 | 0.00 | 0.00 | 66 | 1013.3 |
| 20260506014015 | 66 | 0 | 0.0 | 1.7 | 0.00 | 0.00 | 0.00 | 65 | 1013.3 |
| 20260506013515 | 66 | 0 | 0.0 | 2.6 | 0.00 | 0.00 | 0.00 | 65 | 1013.4 |
| 20260506013033 | 66 | 0 | 0.9 | 2.6 | 0.00 | 0.00 | 0.00 | 65 | 1013.3 |
| 20260506012515 | 66 | 0 | 0.0 | 0.0 | 0.00 | 0.00 | 0.00 | 65 | 1013.3 |
| 20260506012014 | 66 | 0 | 0.0 | 1.7 | 0.00 | 0.00 | 0.00 | 64 | 1013.3 |
| 20260506011532 | 66 | 0 | 0.0 | 1.7 | 0.00 | 0.00 | 0.00 | 64 | 1013.4 |
| 20260506011018 | 66 | 294 | 0.0 | 1.7 | 0.00 | 0.00 | 0.00 | 64 | 1013.3 |
| 20260506010515 | 66 | 294 | 0.0 | 1.7 | 0.00 | 0.00 | 0.00 | 63 | 1013.4 |
| 20260506010032 | 67 | 0 | 0.0 | 2.6 | 0.00 | 0.00 | 0.00 | 63 | 1013.4 |
| 20260506005515 | 67 | 294 | 0.0 | 2.6 | 0.00 | 0.00 | 0.00 | 63 | 1013.4 |
| 20260506005014 | 67 | 0 | 0.0 | 2.6 | 0.00 | 0.00 | 0.00 | 62 | 1013.4 |
| 20260506004546 | 67 | 80 | 0.0 | 1.7 | 0.00 | 0.00 | 0.00 | 62 | 1013.5 |
| 20260506004015 | 67 | 0 | 0.0 | 1.7 | 0.00 | 0.00 | 0.00 | 62 | 1013.5 |
| 20260506003516 | 67 | 0 | 0.0 | 0.9 | 0.00 | 0.00 | 0.00 | 63 | 1013.4 |
| 20260506003043 | 68 | 0 | 0.0 | 1.7 | 0.00 | 0.00 | 0.00 | 62 | 1013.5 |
| 20260506002514 | 68 | 0 | 0.0 | 1.7 | 0.00 | 0.00 | 0.00 | 61 | 1013.5 |
| 20260506002012 | 68 | 335 | 0.0 | 1.7 | 0.00 | 0.00 | 0.00 | 61 | 1013.5 |
| 20260506001535 | 68 | 0 | 0.0 | 0.9 | 0.00 | 0.00 | 0.00 | 61 | 1013.6 |
| 20260506001015 | 68 | 0 | 0.0 | 0.9 | 0.00 | 0.00 | 0.00 | 61 | 1013.7 |
| 20260506000519 | 68 | 0 | 0.0 | 1.7 | 0.00 | 0.00 | 0.00 | 60 | 1013.7 |
| 20260506000032 | 68 | 0 | 0.0 | 1.7 | 0.00 | 0.00 | 0.00 | 60 | 1013.6 |
| 20260505235517 | 68 | 345 | 0.0 | 1.7 | 0.00 | 0.00 | 0.00 | 59 | 1013.7 |
| 20260505235017 | 68 | 0 | 0.0 | 0.9 | 0.00 | 0.00 | 0.00 | 59 | 1013.8 |
| 20260505234554 | 68 | 0 | 0.0 | 1.7 | 0.00 | 0.00 | 0.00 | 59 | 1013.8 |
| 20260505234022 | 69 | 0 | 0.0 | 1.7 | 0.00 | 0.00 | 0.00 | 58 | 1013.8 |
| 20260505233520 | 69 | 324 | 0.0 | 1.7 | 0.00 | 0.00 | 0.00 | 57 | 1013.9 |
| 20260505233038 | 69 | 0 | 0.0 | 0.9 | 0.00 | 0.00 | 0.00 | 58 | 1013.8 |
| 20260505232517 | 69 | 0 | 0.0 | 1.7 | 0.00 | 0.00 | 0.00 | 57 | 1013.9 |
| 20260505232017 | 69 | 0 | 0.0 | 1.7 | 0.00 | 0.00 | 0.00 | 57 | 1014.0 |
| 20260505231535 | 69 | 0 | 0.0 | 1.7 | 0.00 | 0.00 | 0.00 | 58 | 1014.1 |
| 20260505231016 | 69 | 0 | 0.0 | 1.7 | 0.00 | 0.00 | 0.00 | 57 | 1014.1 |
| 20260505230516 | 69 | 352 | 0.0 | 1.7 | 0.00 | 0.00 | 0.00 | 58 | 1014.1 |
| 20260505230041 | 69 | 0 | 0.0 | 2.6 | 0.00 | 0.00 | 0.00 | 58 | 1014.2 |
| 20260505225521 | 69 | 0 | 0.0 | 2.6 | 0.00 | 0.00 | 0.00 | 58 | 1014.2 |
| 20260505225019 | 69 | 0 | 0.0 | 1.7 | 0.00 | 0.00 | 0.00 | 56 | 1014.2 |
| 20260505224539 | 69 | 0 | 0.0 | 1.7 | 0.00 | 0.00 | 0.00 | 57 | 1014.3 |
| 20260505224017 | 69 | 0 | 0.0 | 1.7 | 0.00 | 0.00 | 0.00 | 56 | 1014.3 |
| 20260505223517 | 70 | 250 | 0.0 | 3.5 | 0.00 | 0.00 | 0.00 | 57 | 1014.4 |